LEMOLEAM

Guest
Details From LEMO - MORON AB
To LEAM - Almeria
Flight Number -
Tags generated
Created
Modified
Stats Distance 158 nm / 293 km
Max Altitude 17,900 ft / 5,456 m
Waypoints 3
Social Downloads 0
Likes 0
Share VATSIM

Download

Looking for another format? Having issues loading an existing format? Contact us
Advertisement - Login to hide

Notes

Basic altitude profile: - Ascent Rate: 2500ft/min - Ascent Speed: 250kts - Cruise Altitude: 35000ft - Cruise Speed: 420kts - Descent Rate: 1500ft/min - Descent Speed: 250kts Options: - Use NATs: yes - Use PACOTS: yes - Use low airways: yes - Use high airways: yes

Route

LEMO LOJAS LEAM

ID Type Via Altitude Latitude Longitude Leg Dist Tot Dist Heading (true) Name
O LEMO APT - 0 ft / 0 m 37.17489˚ -5.61602˚ - 0 nm - MORON AB
LOJAS FIX - 17,900 ft / 5,456 m 37.20728˚ -4.15392˚ 69 nm 69 nm 88° / 89° -
O LEAM APT - 0 ft / 0 m 36.84393˚ -2.37010˚ 88 nm 158 nm 104° / 105° Almeria

Altitude Profile

Advertisement - Login to hide

LEMO

Details ICAO LEMO (OZP)
Name MORON AB
Region Spain
Timezone Europe/Madrid (UTC+1.0)
Stats Elevation 285 ft / 87 m (AMSL)
Location 37.174890° -5.616018°
Runways 1
Magnetic Variation 1.210° W

METAR

LEMO 140600Z 03003KT 010V070 9999 FEW036 02/02 Q1027 NOSIG

Decode

TAF

Not found

Departure Runways

ID Width Length Bearing (true) Bearing (mag) Surface Threshold Offset Overrun Length
02 200 ft / 61 m 11,820 ft / 3,603 m 19.75° 20.96° Asphalt 0 ft / 0 m 1,000 ft / 305 m
20 200 ft / 61 m 11,820 ft / 3,603 m 199.76° 200.97° Asphalt 0 ft / 0 m 1,000 ft / 305 m

LEAM

Details ICAO LEAM (LEI)
Name Almeria
Region Spain
Timezone Unknown (UTC+0.0)
Stats Elevation 70 ft / 21 m (AMSL)
Location 36.843935° -2.370097°
Runways 1
Magnetic Variation 0.288° W

METAR

LEAM 140630Z 34005KT CAVOK 07/03 Q1023

Decode

TAF

TAF TAF LEAM 140200Z 1403/1503 30006KT CAVOK TX15/1412Z TN06/1407Z BECMG 1410/1412 22010KT BECMG 1418/1420 VRB03KT

Decode

Destination Runways

ID Width Length Bearing (true) Bearing (mag) Surface Threshold Offset Overrun Length
08 148 ft / 45 m 10,484 ft / 3,196 m 72.94° 73.23° Asphalt 492 ft / 150 m 191 ft / 58 m
26 148 ft / 45 m 10,484 ft / 3,196 m 252.96° 253.25° Asphalt 0 ft / 0 m 150 ft / 46 m

Approach Navaids

Runway Type Ident Frequency Range Bearing (true) Bearing (mag) Slope Elevation
26 Localiser IAM 109.90 MHz 18 nm / 33 km 252.94° 253.23° - 70 ft / 21 m (AMSL)
26 Glidescope IAM 109.90 MHz 10 nm / 19 km 252.95° 253.24° 3.00° 70 ft / 21 m (AMSL)
26 DME IAM 109.90 MHz 18 nm / 33 km - - - 95 ft / 29 m (AMSL)